EXS77PR EGCC-EPKK
Flight info
| Callsign | EXS77PR |
|---|---|
| Flight time | 2h 11m |
| Altitude | 33000 |
| Route | SONEX L975 DESIG L603 LAMSO/N0449F350 DCT MAG L986 BOLBO DCT KOBUS L986 LASIS DCT GODLO DCT ATMEV T714 MOFKE |
| Aircraft | A321/M-SDE3FGHIRWY/LB1 |
Departure
| Time | 2026-05-04 19:54 |
|---|---|
| Airport | Manchester Airport (EGCC) |
Arrival
| Time | 2026-05-04 22:05 |
|---|---|
| Airport | Kraków John Paul II International Airport (EPKK) |
| Time | Latitude | Longitude | Altitude | Speed | Heading |
|---|---|---|---|---|---|
| 2026-05-04 19:10 | 53.36740 | -2.28382 | 247 ft | 0 kts | 134° |
| 2026-05-04 19:33 | 53.36744 | -2.28388 | 247 ft | 4 kts | 135° |
| 2026-05-04 19:34 | 53.36764 | -2.28418 | 247 ft | 4 kts | 146° |
| 2026-05-04 19:34 | 53.36787 | -2.28439 | 247 ft | 4 kts | 168° |
| 2026-05-04 19:34 | 53.36809 | -2.28437 | 247 ft | 3 kts | 221° |
| 2026-05-04 19:34 | 53.36811 | -2.28434 | 247 ft | 0 kts | 224° |
| 2026-05-04 19:37 | 53.36811 | -2.28435 | 247 ft | 1 kts | 224° |
| 2026-05-04 19:38 | 53.36794 | -2.28463 | 247 ft | 4 kts | 225° |
| 2026-05-04 19:38 | 53.36780 | -2.28487 | 247 ft | 2 kts | 225° |
| 2026-05-04 19:38 | 53.36772 | -2.28500 | 247 ft | 1 kts | 225° |
| 2026-05-04 19:38 | 53.36745 | -2.28544 | 247 ft | 10 kts | 224° |
| 2026-05-04 19:39 | 53.36695 | -2.28626 | 247 ft | 9 kts | 224° |
| 2026-05-04 19:39 | 53.36653 | -2.28701 | 247 ft | 8 kts | 237° |
| 2026-05-04 19:39 | 53.36628 | -2.28775 | 247 ft | 7 kts | 223° |
| 2026-05-04 19:39 | 53.36593 | -2.28779 | 247 ft | 4 kts | 154° |
| 2026-05-04 19:40 | 53.36575 | -2.28749 | 247 ft | 4 kts | 135° |
| 2026-05-04 19:40 | 53.36540 | -2.28690 | 247 ft | 10 kts | 135° |
| 2026-05-04 19:40 | 53.36491 | -2.28609 | 247 ft | 9 kts | 135° |
| 2026-05-04 19:40 | 53.36452 | -2.28543 | 247 ft | 7 kts | 135° |
| 2026-05-04 19:41 | 53.36423 | -2.28485 | 247 ft | 6 kts | 123° |
| 2026-05-04 19:41 | 53.36406 | -2.28432 | 247 ft | 5 kts | 114° |
| 2026-05-04 19:41 | 53.36394 | -2.28388 | 247 ft | 5 kts | 118° |
| 2026-05-04 19:41 | 53.36341 | -2.28288 | 247 ft | 15 kts | 135° |
| 2026-05-04 19:42 | 53.36272 | -2.28174 | 247 ft | 13 kts | 135° |
| 2026-05-04 19:42 | 53.36213 | -2.28076 | 247 ft | 11 kts | 135° |
| 2026-05-04 19:42 | 53.36165 | -2.27993 | 247 ft | 9 kts | 134° |
| 2026-05-04 19:42 | 53.36123 | -2.27923 | 247 ft | 8 kts | 135° |
| 2026-05-04 19:43 | 53.36079 | -2.27869 | 247 ft | 8 kts | 162° |
| 2026-05-04 19:43 | 53.36023 | -2.27890 | 247 ft | 9 kts | 185° |
| 2026-05-04 19:43 | 53.35966 | -2.27854 | 247 ft | 9 kts | 160° |
| 2026-05-04 19:43 | 53.35900 | -2.27845 | 247 ft | 10 kts | 179° |
| 2026-05-04 19:44 | 53.35840 | -2.27789 | 247 ft | 10 kts | 137° |
| 2026-05-04 19:44 | 53.35792 | -2.27696 | 247 ft | 11 kts | 134° |
| 2026-05-04 19:44 | 53.35725 | -2.27635 | 247 ft | 11 kts | 158° |
| 2026-05-04 19:44 | 53.35656 | -2.27569 | 247 ft | 11 kts | 142° |
| 2026-05-04 19:45 | 53.35622 | -2.27493 | 251 ft | 4 kts | 104° |
| 2026-05-04 19:45 | 53.35628 | -2.27440 | 253 ft | 6 kts | 68° |
| 2026-05-04 19:45 | 53.35669 | -2.27352 | 253 ft | 16 kts | 51° |
| 2026-05-04 19:45 | 53.35747 | -2.27191 | 253 ft | 18 kts | 51° |
| 2026-05-04 19:46 | 53.35819 | -2.27030 | 253 ft | 16 kts | 59° |
| 2026-05-04 19:46 | 53.35879 | -2.26882 | 254 ft | 15 kts | 52° |
| 2026-05-04 19:46 | 53.35935 | -2.26749 | 254 ft | 13 kts | 53° |
| 2026-05-04 19:46 | 53.35989 | -2.26636 | 254 ft | 12 kts | 51° |
| 2026-05-04 19:47 | 53.36039 | -2.26531 | 254 ft | 11 kts | 51° |
| 2026-05-04 19:47 | 53.36085 | -2.26435 | 253 ft | 11 kts | 51° |
| 2026-05-04 19:47 | 53.36131 | -2.26336 | 252 ft | 11 kts | 51° |
| 2026-05-04 19:47 | 53.36183 | -2.26256 | 251 ft | 10 kts | 33° |
| 2026-05-04 19:48 | 53.36235 | -2.26171 | 250 ft | 10 kts | 51° |
| 2026-05-04 19:48 | 53.36269 | -2.26077 | 250 ft | 8 kts | 76° |
| 2026-05-04 19:48 | 53.36269 | -2.26048 | 251 ft | 0 kts | 94° |
| 2026-05-04 19:49 | 53.36269 | -2.26039 | 251 ft | 0 kts | 94° |
| 2026-05-04 19:51 | 53.36268 | -2.26018 | 251 ft | 5 kts | 95° |
| 2026-05-04 19:51 | 53.36282 | -2.25926 | 253 ft | 10 kts | 69° |
| 2026-05-04 19:51 | 53.36286 | -2.25839 | 256 ft | 5 kts | 103° |
| 2026-05-04 19:52 | 53.36263 | -2.25780 | 260 ft | 7 kts | 136° |
| 2026-05-04 19:52 | 53.36221 | -2.25759 | 260 ft | 9 kts | 194° |
| 2026-05-04 19:52 | 53.36179 | -2.25831 | 259 ft | 2 kts | 230° |
| 2026-05-04 19:52 | 53.36178 | -2.25832 | 259 ft | 0 kts | 230° |
| 2026-05-04 19:53 | 53.36116 | -2.25958 | 259 ft | 45 kts | 231° |
| 2026-05-04 19:53 | 53.35773 | -2.26674 | 266 ft | 110 kts | 231° |
| 2026-05-04 19:53 | 53.35181 | -2.27919 | 248 ft | 162 kts | 232° |
| 2026-05-04 19:53 | 53.34454 | -2.29471 | 715 ft | 166 kts | 233° |
| 2026-05-04 19:54 | 53.33732 | -2.30982 | 1366 ft | 168 kts | 234° |
| 2026-05-04 19:54 | 53.32998 | -2.32507 | 1998 ft | 170 kts | 235° |
| 2026-05-04 19:54 | 53.32299 | -2.34215 | 2294 ft | 185 kts | 247° |
| 2026-05-04 19:54 | 53.31929 | -2.36335 | 2459 ft | 202 kts | 266° |
| 2026-05-04 19:55 | 53.32054 | -2.38757 | 2587 ft | 220 kts | 288° |
| 2026-05-04 19:55 | 53.32816 | -2.41104 | 2827 ft | 241 kts | 312° |
| 2026-05-04 19:55 | 53.34184 | -2.42806 | 3426 ft | 252 kts | 336° |
| 2026-05-04 19:55 | 53.35913 | -2.43411 | 4124 ft | 258 kts | 355° |
| 2026-05-04 19:56 | 53.37720 | -2.43552 | 4792 ft | 263 kts | 356° |
| 2026-05-04 19:56 | 53.38126 | -2.43581 | 4897 ft | 263 kts | 356° |
| 2026-05-04 19:56 | 53.39419 | -2.43628 | 5374 ft | 264 kts | 355° |
| 2026-05-04 19:56 | 53.41208 | -2.44321 | 6126 ft | 265 kts | 341° |
| 2026-05-04 19:57 | 53.42973 | -2.45271 | 6856 ft | 268 kts | 343° |
| 2026-05-04 19:57 | 53.44846 | -2.45488 | 7532 ft | 275 kts | 7° |
| 2026-05-04 19:57 | 53.46655 | -2.44372 | 8185 ft | 282 kts | 32° |
| 2026-05-04 19:57 | 53.48058 | -2.42041 | 8835 ft | 290 kts | 57° |
| 2026-05-04 19:58 | 53.48772 | -2.38863 | 9466 ft | 296 kts | 82° |
| 2026-05-04 19:58 | 53.48665 | -2.35388 | 9959 ft | 302 kts | 101° |
| 2026-05-04 19:58 | 53.48430 | -2.31887 | 10118 ft | 303 kts | 87° |
| 2026-05-04 19:58 | 53.48784 | -2.28349 | 10417 ft | 318 kts | 74° |
| 2026-05-04 19:59 | 53.49357 | -2.24633 | 10545 ft | 339 kts | 75° |
| 2026-05-04 19:59 | 53.49879 | -2.20642 | 10671 ft | 360 kts | 79° |
| 2026-05-04 19:59 | 53.50251 | -2.16382 | 10870 ft | 375 kts | 82° |
| 2026-05-04 19:59 | 53.50571 | -2.11980 | 11387 ft | 381 kts | 83° |
| 2026-05-04 20:00 | 53.50906 | -2.07559 | 11953 ft | 385 kts | 82° |
| 2026-05-04 20:00 | 53.51287 | -2.03084 | 12567 ft | 388 kts | 81° |
| 2026-05-04 20:00 | 53.51715 | -1.98595 | 13183 ft | 391 kts | 80° |
| 2026-05-04 20:00 | 53.52167 | -1.94077 | 13773 ft | 394 kts | 82° |
| 2026-05-04 20:01 | 53.52310 | -1.89467 | 14288 ft | 397 kts | 93° |
| 2026-05-04 20:01 | 53.51942 | -1.84868 | 14796 ft | 399 kts | 104° |
| 2026-05-04 20:01 | 53.51174 | -1.80377 | 15309 ft | 401 kts | 107° |
| 2026-05-04 20:01 | 53.50372 | -1.75877 | 15805 ft | 404 kts | 107° |
| 2026-05-04 20:02 | 53.49570 | -1.71343 | 16302 ft | 406 kts | 107° |
| 2026-05-04 20:02 | 53.48763 | -1.66778 | 16785 ft | 409 kts | 107° |
| 2026-05-04 20:02 | 53.47949 | -1.62184 | 17261 ft | 412 kts | 107° |
| 2026-05-04 20:02 | 53.47130 | -1.57567 | 17754 ft | 414 kts | 107° |
| 2026-05-04 20:03 | 53.46305 | -1.52920 | 18212 ft | 417 kts | 108° |
| 2026-05-04 20:03 | 53.45467 | -1.48223 | 18599 ft | 421 kts | 108° |
| 2026-05-04 20:03 | 53.44620 | -1.43511 | 19010 ft | 423 kts | 108° |
| 2026-05-04 20:03 | 53.43765 | -1.38780 | 19447 ft | 425 kts | 108° |
| 2026-05-04 20:04 | 53.42903 | -1.34034 | 19877 ft | 426 kts | 108° |
| 2026-05-04 20:04 | 53.42038 | -1.29274 | 20307 ft | 428 kts | 107° |
| 2026-05-04 20:04 | 53.41452 | -1.26045 | 20608 ft | 429 kts | 107° |
| 2026-05-04 20:04 | 53.40302 | -1.19689 | 21172 ft | 431 kts | 107° |
| 2026-05-04 20:05 | 53.39724 | -1.16503 | 21452 ft | 432 kts | 107° |
| 2026-05-04 20:05 | 53.38545 | -1.10043 | 22024 ft | 435 kts | 107° |
| 2026-05-04 20:05 | 53.37957 | -1.06834 | 22301 ft | 436 kts | 107° |
| 2026-05-04 20:05 | 53.37057 | -1.01952 | 22707 ft | 438 kts | 107° |
| 2026-05-04 20:06 | 53.36159 | -0.97084 | 23061 ft | 441 kts | 107° |
| 2026-05-04 20:06 | 53.35251 | -0.92168 | 23441 ft | 443 kts | 107° |
| 2026-05-04 20:06 | 53.34339 | -0.87230 | 23789 ft | 445 kts | 107° |
| 2026-05-04 20:06 | 53.33421 | -0.82275 | 24112 ft | 447 kts | 107° |
| 2026-05-04 20:07 | 53.32495 | -0.77302 | 24456 ft | 448 kts | 107° |
| 2026-05-04 20:07 | 53.31565 | -0.72324 | 24800 ft | 449 kts | 107° |
| 2026-05-04 20:07 | 53.30632 | -0.67332 | 25137 ft | 450 kts | 107° |
| 2026-05-04 20:07 | 53.29696 | -0.62340 | 25464 ft | 451 kts | 107° |
| 2026-05-04 20:08 | 53.28754 | -0.57333 | 25760 ft | 452 kts | 107° |
| 2026-05-04 20:08 | 53.27808 | -0.52309 | 26066 ft | 454 kts | 107° |
| 2026-05-04 20:08 | 53.26855 | -0.47271 | 26380 ft | 455 kts | 107° |
| 2026-05-04 20:08 | 53.25899 | -0.42224 | 26693 ft | 457 kts | 107° |
| 2026-05-04 20:09 | 53.24937 | -0.37160 | 26996 ft | 458 kts | 108° |
| 2026-05-04 20:09 | 53.23967 | -0.32065 | 27153 ft | 463 kts | 108° |
| 2026-05-04 20:09 | 53.22986 | -0.26922 | 27380 ft | 466 kts | 108° |
| 2026-05-04 20:09 | 53.22003 | -0.21772 | 27745 ft | 465 kts | 108° |
| 2026-05-04 20:10 | 53.21017 | -0.16629 | 28170 ft | 463 kts | 108° |
| 2026-05-04 20:10 | 53.20035 | -0.11529 | 28593 ft | 461 kts | 108° |
| 2026-05-04 20:10 | 53.19050 | -0.06456 | 29017 ft | 459 kts | 108° |
| 2026-05-04 20:10 | 53.18066 | -0.01403 | 29436 ft | 457 kts | 108° |
| 2026-05-04 20:11 | 53.17084 | 0.03647 | 29725 ft | 459 kts | 108° |
| 2026-05-04 20:11 | 53.16101 | 0.08701 | 30039 ft | 459 kts | 108° |
| 2026-05-04 20:11 | 53.15116 | 0.13757 | 30350 ft | 458 kts | 108° |
| 2026-05-04 20:11 | 53.14132 | 0.18797 | 30669 ft | 457 kts | 108° |
| 2026-05-04 20:12 | 53.13161 | 0.23754 | 30992 ft | 456 kts | 108° |
| 2026-05-04 20:12 | 53.12176 | 0.28762 | 31300 ft | 455 kts | 108° |
| 2026-05-04 20:12 | 53.11186 | 0.33776 | 31611 ft | 454 kts | 108° |
| 2026-05-04 20:12 | 53.10201 | 0.38748 | 31924 ft | 453 kts | 108° |
| 2026-05-04 20:13 | 53.09215 | 0.43718 | 32238 ft | 452 kts | 108° |
| 2026-05-04 20:13 | 53.08228 | 0.48682 | 32544 ft | 452 kts | 108° |
| 2026-05-04 20:13 | 53.07243 | 0.53637 | 32813 ft | 452 kts | 109° |
| 2026-05-04 20:13 | 53.06248 | 0.58619 | 32989 ft | 455 kts | 109° |
| 2026-05-04 20:14 | 53.05249 | 0.63606 | 33061 ft | 454 kts | 109° |
| 2026-05-04 20:14 | 53.03256 | 0.73531 | 33065 ft | 452 kts | 109° |
| 2026-05-04 20:15 | 53.01258 | 0.83432 | 33068 ft | 452 kts | 109° |
| 2026-05-04 20:15 | 53.00666 | 0.86347 | 33068 ft | 452 kts | 109° |
| 2026-05-04 20:16 | 52.98949 | 0.94757 | 33069 ft | 453 kts | 109° |
| 2026-05-04 20:16 | 52.97309 | 1.04852 | 33067 ft | 455 kts | 102° |
| 2026-05-04 20:17 | 52.96138 | 1.15166 | 33049 ft | 456 kts | 102° |
| 2026-05-04 20:17 | 52.94936 | 1.25510 | 33047 ft | 457 kts | 102° |
| 2026-05-04 20:18 | 52.93729 | 1.35774 | 33050 ft | 457 kts | 102° |
| 2026-05-04 20:18 | 52.92511 | 1.46116 | 33052 ft | 457 kts | 102° |
| 2026-05-04 20:19 | 52.91283 | 1.56464 | 33047 ft | 458 kts | 102° |
| 2026-05-04 20:19 | 52.90044 | 1.66823 | 33042 ft | 459 kts | 102° |
| 2026-05-04 20:20 | 52.88793 | 1.77212 | 33044 ft | 460 kts | 103° |
| 2026-05-04 20:20 | 52.87524 | 1.87603 | 33046 ft | 460 kts | 103° |
| 2026-05-04 20:21 | 52.86253 | 1.97989 | 33052 ft | 461 kts | 103° |
| 2026-05-04 20:21 | 52.84324 | 2.13577 | 33049 ft | 461 kts | 103° |
| 2026-05-04 20:22 | 52.83023 | 2.23969 | 33047 ft | 462 kts | 103° |
| 2026-05-04 20:22 | 52.81710 | 2.34372 | 33049 ft | 462 kts | 103° |
| 2026-05-04 20:23 | 52.80391 | 2.44760 | 33047 ft | 462 kts | 103° |
| 2026-05-04 20:23 | 52.79064 | 2.55150 | 33039 ft | 462 kts | 104° |
| 2026-05-04 20:24 | 52.77733 | 2.65536 | 33043 ft | 462 kts | 104° |
| 2026-05-04 20:24 | 52.76381 | 2.75921 | 33048 ft | 462 kts | 104° |
| 2026-05-04 20:25 | 52.75025 | 2.86294 | 33051 ft | 462 kts | 104° |
| 2026-05-04 20:25 | 52.73660 | 2.96669 | 33052 ft | 462 kts | 104° |
| 2026-05-04 20:26 | 52.72933 | 3.07230 | 33028 ft | 465 kts | 96° |
| 2026-05-04 20:26 | 52.72441 | 3.17797 | 33029 ft | 465 kts | 97° |
| 2026-05-04 20:27 | 52.71931 | 3.28440 | 33018 ft | 466 kts | 97° |
| 2026-05-04 20:27 | 52.71670 | 3.33777 | 33216 ft | 467 kts | 97° |
| 2026-05-04 20:27 | 52.71408 | 3.39122 | 33514 ft | 467 kts | 97° |
| 2026-05-04 20:28 | 52.71148 | 3.44454 | 33817 ft | 467 kts | 97° |
| 2026-05-04 20:28 | 52.70885 | 3.49792 | 34097 ft | 467 kts | 97° |
| 2026-05-04 20:28 | 52.70619 | 3.55124 | 34303 ft | 467 kts | 97° |
| 2026-05-04 20:28 | 52.70349 | 3.60466 | 34503 ft | 468 kts | 97° |
| 2026-05-04 20:29 | 52.70076 | 3.65810 | 34731 ft | 468 kts | 97° |
| 2026-05-04 20:29 | 52.69798 | 3.71155 | 34936 ft | 468 kts | 97° |
| 2026-05-04 20:29 | 52.69234 | 3.81854 | 35041 ft | 468 kts | 97° |
| 2026-05-04 20:30 | 52.68666 | 3.92546 | 35041 ft | 468 kts | 97° |
| 2026-05-04 20:30 | 52.68089 | 4.03220 | 35024 ft | 468 kts | 97° |
| 2026-05-04 20:31 | 52.67504 | 4.13884 | 35035 ft | 467 kts | 98° |
| 2026-05-04 20:31 | 52.66901 | 4.24530 | 35029 ft | 467 kts | 98° |
| 2026-05-04 20:32 | 52.66298 | 4.35179 | 35030 ft | 467 kts | 98° |
| 2026-05-04 20:32 | 52.65689 | 4.45821 | 35023 ft | 467 kts | 98° |
| 2026-05-04 20:33 | 52.65069 | 4.56456 | 35028 ft | 467 kts | 98° |
| 2026-05-04 20:33 | 52.64438 | 4.67090 | 35025 ft | 467 kts | 98° |
| 2026-05-04 20:34 | 52.63792 | 4.77722 | 35023 ft | 467 kts | 98° |
| 2026-05-04 20:34 | 52.63137 | 4.88348 | 35023 ft | 466 kts | 98° |
| 2026-05-04 20:35 | 52.62474 | 4.98976 | 35021 ft | 466 kts | 98° |
| 2026-05-04 20:35 | 52.61807 | 5.09589 | 35008 ft | 466 kts | 99° |
| 2026-05-04 20:36 | 52.61127 | 5.20183 | 35010 ft | 466 kts | 99° |
| 2026-05-04 20:36 | 52.60442 | 5.30726 | 35004 ft | 466 kts | 99° |
| 2026-05-04 20:37 | 52.59737 | 5.41401 | 35005 ft | 466 kts | 99° |
| 2026-05-04 20:37 | 52.59026 | 5.51996 | 34993 ft | 466 kts | 99° |
| 2026-05-04 20:38 | 52.58304 | 5.62597 | 34995 ft | 467 kts | 99° |
| 2026-05-04 20:38 | 52.57576 | 5.73209 | 34994 ft | 467 kts | 100° |
| 2026-05-04 20:39 | 52.56839 | 5.83824 | 34993 ft | 467 kts | 100° |
| 2026-05-04 20:39 | 52.56089 | 5.94435 | 34995 ft | 468 kts | 100° |
| 2026-05-04 20:40 | 52.55336 | 6.04976 | 34983 ft | 467 kts | 101° |
| 2026-05-04 20:40 | 52.54566 | 6.15656 | 34990 ft | 467 kts | 101° |
| 2026-05-04 20:41 | 52.53789 | 6.26254 | 34988 ft | 467 kts | 101° |
| 2026-05-04 20:41 | 52.53006 | 6.36777 | 34990 ft | 467 kts | 101° |
| 2026-05-04 20:42 | 52.52210 | 6.47359 | 34990 ft | 467 kts | 101° |
| 2026-05-04 20:42 | 52.51402 | 6.57947 | 34979 ft | 468 kts | 101° |
| 2026-05-04 20:43 | 52.50590 | 6.68541 | 34976 ft | 468 kts | 101° |
| 2026-05-04 20:43 | 52.49765 | 6.79138 | 34978 ft | 468 kts | 101° |
| 2026-05-04 20:44 | 52.48928 | 6.89743 | 34976 ft | 468 kts | 102° |
| 2026-05-04 20:44 | 52.48082 | 7.00333 | 34962 ft | 469 kts | 102° |
| 2026-05-04 20:45 | 52.47229 | 7.10945 | 34964 ft | 470 kts | 102° |
| 2026-05-04 20:45 | 52.46360 | 7.21575 | 34969 ft | 471 kts | 102° |
| 2026-05-04 20:46 | 52.45478 | 7.32219 | 34970 ft | 471 kts | 102° |
| 2026-05-04 20:46 | 52.44592 | 7.42871 | 34972 ft | 471 kts | 102° |
| 2026-05-04 20:47 | 52.43699 | 7.53520 | 34952 ft | 472 kts | 102° |
| 2026-05-04 20:47 | 52.42787 | 7.64189 | 34961 ft | 473 kts | 103° |
| 2026-05-04 20:48 | 52.41863 | 7.74882 | 34969 ft | 474 kts | 103° |
| 2026-05-04 20:48 | 52.40926 | 7.85569 | 34972 ft | 474 kts | 103° |
| 2026-05-04 20:49 | 52.39984 | 7.96261 | 34946 ft | 475 kts | 103° |
| 2026-05-04 20:49 | 52.39031 | 8.06973 | 34950 ft | 476 kts | 103° |
| 2026-05-04 20:50 | 52.38068 | 8.17704 | 34955 ft | 477 kts | 103° |
| 2026-05-04 20:50 | 52.37092 | 8.28442 | 34959 ft | 477 kts | 103° |
| 2026-05-04 20:51 | 52.36267 | 8.37367 | 34960 ft | 477 kts | 103° |
| 2026-05-04 20:51 | 52.35269 | 8.48107 | 34954 ft | 478 kts | 103° |
| 2026-05-04 20:52 | 52.34264 | 8.58868 | 34953 ft | 479 kts | 103° |
| 2026-05-04 20:52 | 52.33253 | 8.69644 | 34958 ft | 479 kts | 103° |
| 2026-05-04 20:53 | 52.32232 | 8.80417 | 34962 ft | 479 kts | 103° |
| 2026-05-04 20:53 | 52.31192 | 8.91174 | 34966 ft | 479 kts | 103° |
| 2026-05-04 20:54 | 52.30132 | 9.01939 | 34951 ft | 480 kts | 103° |
| 2026-05-04 20:54 | 52.29068 | 9.12720 | 34956 ft | 481 kts | 103° |
| 2026-05-04 20:55 | 52.27994 | 9.23505 | 34961 ft | 481 kts | 103° |
| 2026-05-04 20:55 | 52.26914 | 9.34294 | 34964 ft | 482 kts | 103° |
| 2026-05-04 20:56 | 52.25826 | 9.45091 | 34965 ft | 482 kts | 103° |
| 2026-05-04 20:56 | 52.24728 | 9.55808 | 34966 ft | 482 kts | 103° |
| 2026-05-04 20:57 | 52.23616 | 9.66573 | 34983 ft | 481 kts | 103° |
| 2026-05-04 20:57 | 52.22497 | 9.77343 | 34982 ft | 482 kts | 104° |
| 2026-05-04 20:58 | 52.21361 | 9.88106 | 34974 ft | 481 kts | 104° |
| 2026-05-04 20:58 | 52.20216 | 9.98855 | 34958 ft | 481 kts | 103° |
| 2026-05-04 20:59 | 52.19066 | 10.09598 | 34956 ft | 481 kts | 103° |
| 2026-05-04 20:59 | 52.17917 | 10.20342 | 34961 ft | 481 kts | 103° |
| 2026-05-04 21:00 | 52.16750 | 10.31072 | 34962 ft | 481 kts | 104° |
| 2026-05-04 21:00 | 52.15573 | 10.41791 | 34965 ft | 481 kts | 103° |
| 2026-05-04 21:01 | 52.14384 | 10.52507 | 34977 ft | 481 kts | 103° |
| 2026-05-04 21:01 | 52.13179 | 10.63210 | 34980 ft | 481 kts | 104° |
| 2026-05-04 21:02 | 52.11969 | 10.73908 | 34980 ft | 480 kts | 104° |
| 2026-05-04 21:02 | 52.10752 | 10.84590 | 34976 ft | 480 kts | 104° |
| 2026-05-04 21:03 | 52.09534 | 10.95274 | 34958 ft | 480 kts | 103° |
| 2026-05-04 21:03 | 52.08303 | 11.05945 | 34969 ft | 480 kts | 104° |
| 2026-05-04 21:04 | 52.07052 | 11.16596 | 34976 ft | 480 kts | 104° |
| 2026-05-04 21:04 | 52.05791 | 11.27237 | 34976 ft | 480 kts | 104° |
| 2026-05-04 21:05 | 52.04532 | 11.37876 | 34974 ft | 479 kts | 104° |
| 2026-05-04 21:05 | 52.03267 | 11.48492 | 34984 ft | 478 kts | 104° |
| 2026-05-04 21:06 | 52.01980 | 11.59082 | 34982 ft | 478 kts | 104° |
| 2026-05-04 21:06 | 52.00697 | 11.69661 | 34983 ft | 478 kts | 104° |
| 2026-05-04 21:07 | 51.99403 | 11.80236 | 34986 ft | 477 kts | 104° |
| 2026-05-04 21:07 | 51.97976 | 11.90742 | 34973 ft | 477 kts | 106° |
| 2026-05-04 21:08 | 51.96433 | 12.01198 | 34971 ft | 476 kts | 107° |
| 2026-05-04 21:08 | 51.94893 | 12.11643 | 34971 ft | 476 kts | 106° |
| 2026-05-04 21:09 | 51.93379 | 12.22093 | 34969 ft | 476 kts | 106° |
| 2026-05-04 21:09 | 51.91860 | 12.32539 | 34953 ft | 476 kts | 106° |
| 2026-05-04 21:10 | 51.90325 | 12.42900 | 34951 ft | 476 kts | 107° |
| 2026-05-04 21:10 | 51.88775 | 12.53319 | 34955 ft | 476 kts | 106° |
| 2026-05-04 21:11 | 51.87237 | 12.63749 | 34951 ft | 476 kts | 106° |
| 2026-05-04 21:11 | 51.85686 | 12.74170 | 34954 ft | 476 kts | 107° |
| 2026-05-04 21:12 | 51.84122 | 12.84585 | 34940 ft | 477 kts | 107° |
| 2026-05-04 21:12 | 51.82550 | 12.94999 | 34935 ft | 477 kts | 107° |
| 2026-05-04 21:13 | 51.80963 | 13.05411 | 34942 ft | 477 kts | 107° |
| 2026-05-04 21:13 | 51.79279 | 13.15764 | 34943 ft | 475 kts | 112° |
| 2026-05-04 21:14 | 51.76840 | 13.25622 | 34929 ft | 473 kts | 115° |
| 2026-05-04 21:14 | 51.74374 | 13.35461 | 34949 ft | 472 kts | 115° |
| 2026-05-04 21:15 | 51.71901 | 13.45270 | 34959 ft | 472 kts | 115° |
| 2026-05-04 21:15 | 51.69419 | 13.55065 | 34970 ft | 472 kts | 115° |
| 2026-05-04 21:16 | 51.66949 | 13.64778 | 34972 ft | 472 kts | 115° |
| 2026-05-04 21:16 | 51.64456 | 13.74549 | 34978 ft | 471 kts | 115° |
| 2026-05-04 21:17 | 51.61955 | 13.84297 | 34987 ft | 471 kts | 115° |
| 2026-05-04 21:17 | 51.59446 | 13.94041 | 34969 ft | 471 kts | 115° |
| 2026-05-04 21:18 | 51.56935 | 14.03766 | 34970 ft | 471 kts | 115° |
| 2026-05-04 21:18 | 51.54414 | 14.13480 | 34971 ft | 471 kts | 116° |
| 2026-05-04 21:19 | 51.51886 | 14.23179 | 34967 ft | 471 kts | 114° |
| 2026-05-04 21:19 | 51.50135 | 14.33356 | 34967 ft | 474 kts | 105° |
| 2026-05-04 21:20 | 51.48627 | 14.43648 | 34965 ft | 474 kts | 105° |
| 2026-05-04 21:20 | 51.47098 | 14.53940 | 34962 ft | 474 kts | 106° |
| 2026-05-04 21:21 | 51.45559 | 14.64206 | 34965 ft | 473 kts | 106° |
| 2026-05-04 21:21 | 51.44012 | 14.74454 | 34970 ft | 473 kts | 106° |
| 2026-05-04 21:22 | 51.42454 | 14.84688 | 34966 ft | 472 kts | 106° |
| 2026-05-04 21:22 | 51.40879 | 14.94901 | 34962 ft | 471 kts | 109° |
| 2026-05-04 21:23 | 51.38546 | 15.04650 | 34960 ft | 469 kts | 115° |
| 2026-05-04 21:23 | 51.36086 | 15.14317 | 34958 ft | 469 kts | 115° |
| 2026-05-04 21:24 | 51.33628 | 15.23969 | 34963 ft | 469 kts | 115° |
| 2026-05-04 21:24 | 51.31159 | 15.33621 | 34958 ft | 469 kts | 115° |
| 2026-05-04 21:25 | 51.28685 | 15.43251 | 34957 ft | 468 kts | 115° |
| 2026-05-04 21:25 | 51.26202 | 15.52858 | 34937 ft | 468 kts | 115° |
| 2026-05-04 21:26 | 51.23708 | 15.62478 | 34946 ft | 469 kts | 115° |
| 2026-05-04 21:26 | 51.21201 | 15.72081 | 34950 ft | 469 kts | 115° |
| 2026-05-04 21:27 | 51.18682 | 15.81684 | 34951 ft | 469 kts | 115° |
| 2026-05-04 21:27 | 51.16162 | 15.91279 | 34947 ft | 469 kts | 115° |
| 2026-05-04 21:28 | 51.13631 | 16.00865 | 34954 ft | 469 kts | 115° |
| 2026-05-04 21:28 | 51.11098 | 16.10440 | 34955 ft | 469 kts | 115° |
| 2026-05-04 21:29 | 51.08560 | 16.20001 | 34957 ft | 469 kts | 115° |
| 2026-05-04 21:29 | 51.06023 | 16.29488 | 34946 ft | 469 kts | 115° |
| 2026-05-04 21:30 | 51.03466 | 16.39019 | 34953 ft | 469 kts | 115° |
| 2026-05-04 21:30 | 51.00899 | 16.48531 | 34959 ft | 468 kts | 115° |
| 2026-05-04 21:31 | 50.97082 | 16.62802 | 34960 ft | 468 kts | 115° |
| 2026-05-04 21:32 | 50.94551 | 16.72323 | 34951 ft | 468 kts | 114° |
| 2026-05-04 21:32 | 50.92008 | 16.81833 | 34955 ft | 468 kts | 114° |
| 2026-05-04 21:33 | 50.89444 | 16.91324 | 34951 ft | 468 kts | 115° |
| 2026-05-04 21:33 | 50.86880 | 17.00794 | 34951 ft | 468 kts | 115° |
| 2026-05-04 21:34 | 50.84310 | 17.10255 | 34949 ft | 468 kts | 115° |
| 2026-05-04 21:34 | 50.81727 | 17.19704 | 34947 ft | 468 kts | 115° |
| 2026-05-04 21:35 | 50.79135 | 17.29149 | 34949 ft | 468 kts | 115° |
| 2026-05-04 21:35 | 50.76543 | 17.38585 | 34947 ft | 468 kts | 115° |
| 2026-05-04 21:36 | 50.73939 | 17.48006 | 34951 ft | 468 kts | 115° |
| 2026-05-04 21:36 | 50.71778 | 17.55848 | 34945 ft | 468 kts | 114° |
| 2026-05-04 21:36 | 50.70487 | 17.60561 | 34719 ft | 468 kts | 114° |
| 2026-05-04 21:37 | 50.69199 | 17.65266 | 34469 ft | 467 kts | 114° |
| 2026-05-04 21:37 | 50.67904 | 17.69986 | 33577 ft | 472 kts | 114° |
| 2026-05-04 21:37 | 50.66596 | 17.74733 | 32633 ft | 472 kts | 114° |
| 2026-05-04 21:37 | 50.65284 | 17.79470 | 31712 ft | 471 kts | 114° |
| 2026-05-04 21:38 | 50.63972 | 17.84202 | 30823 ft | 471 kts | 114° |
| 2026-05-04 21:38 | 50.62656 | 17.88937 | 29744 ft | 474 kts | 114° |
| 2026-05-04 21:38 | 50.61327 | 17.93700 | 28670 ft | 475 kts | 115° |
| 2026-05-04 21:38 | 50.60058 | 17.98481 | 27686 ft | 472 kts | 111° |
| 2026-05-04 21:39 | 50.59076 | 18.03425 | 26545 ft | 475 kts | 104° |
| 2026-05-04 21:39 | 50.58501 | 18.08536 | 25506 ft | 475 kts | 96° |
| 2026-05-04 21:39 | 50.58318 | 18.13657 | 24942 ft | 463 kts | 93° |
| 2026-05-04 21:39 | 50.58169 | 18.18676 | 24255 ft | 455 kts | 93° |
| 2026-05-04 21:40 | 50.58023 | 18.23615 | 23583 ft | 448 kts | 93° |
| 2026-05-04 21:40 | 50.57881 | 18.28473 | 22877 ft | 440 kts | 93° |
| 2026-05-04 21:40 | 50.57741 | 18.33229 | 22286 ft | 430 kts | 94° |
| 2026-05-04 21:40 | 50.57597 | 18.37896 | 21691 ft | 426 kts | 94° |
| 2026-05-04 21:41 | 50.57449 | 18.42539 | 21121 ft | 424 kts | 94° |
| 2026-05-04 21:41 | 50.57299 | 18.47118 | 20667 ft | 428 kts | 94° |
| 2026-05-04 21:41 | 50.57126 | 18.51943 | 20303 ft | 441 kts | 95° |
| 2026-05-04 21:41 | 50.56944 | 18.56702 | 19919 ft | 442 kts | 95° |
| 2026-05-04 21:42 | 50.56751 | 18.61570 | 19522 ft | 440 kts | 95° |
| 2026-05-04 21:42 | 50.56561 | 18.66294 | 19138 ft | 437 kts | 95° |
| 2026-05-04 21:42 | 50.56370 | 18.71054 | 18753 ft | 434 kts | 95° |
| 2026-05-04 21:42 | 50.56247 | 18.75797 | 18375 ft | 432 kts | 92° |
| 2026-05-04 21:43 | 50.56232 | 18.80516 | 17960 ft | 430 kts | 91° |
| 2026-05-04 21:43 | 50.56285 | 18.85193 | 17623 ft | 422 kts | 90° |
| 2026-05-04 21:43 | 50.56362 | 18.89712 | 17486 ft | 406 kts | 90° |
| 2026-05-04 21:43 | 50.56431 | 18.94074 | 17339 ft | 392 kts | 90° |
| 2026-05-04 21:44 | 50.56475 | 18.98278 | 17210 ft | 378 kts | 91° |
| 2026-05-04 21:44 | 50.56498 | 19.02344 | 17078 ft | 365 kts | 91° |
| 2026-05-04 21:44 | 50.56509 | 19.06272 | 16947 ft | 353 kts | 91° |
| 2026-05-04 21:44 | 50.56513 | 19.10082 | 16776 ft | 344 kts | 91° |
| 2026-05-04 21:45 | 50.56512 | 19.13807 | 16530 ft | 337 kts | 92° |
| 2026-05-04 21:45 | 50.56500 | 19.17437 | 16308 ft | 336 kts | 92° |
| 2026-05-04 21:45 | 50.56481 | 19.21108 | 16068 ft | 335 kts | 92° |
| 2026-05-04 21:45 | 50.56455 | 19.24761 | 15825 ft | 334 kts | 92° |
| 2026-05-04 21:46 | 50.56426 | 19.28458 | 15582 ft | 333 kts | 92° |
| 2026-05-04 21:46 | 50.56399 | 19.32096 | 15343 ft | 332 kts | 92° |
| 2026-05-04 21:46 | 50.56375 | 19.35722 | 15102 ft | 331 kts | 93° |
| 2026-05-04 21:46 | 50.56352 | 19.39341 | 14863 ft | 330 kts | 93° |
| 2026-05-04 21:47 | 50.56329 | 19.42947 | 14621 ft | 330 kts | 93° |
| 2026-05-04 21:47 | 50.56306 | 19.46559 | 14386 ft | 330 kts | 93° |
| 2026-05-04 21:47 | 50.56279 | 19.50167 | 14147 ft | 329 kts | 93° |
| 2026-05-04 21:47 | 50.56251 | 19.53763 | 13911 ft | 329 kts | 93° |
| 2026-05-04 21:48 | 50.56220 | 19.57351 | 13660 ft | 327 kts | 95° |
| 2026-05-04 21:48 | 50.55853 | 19.60789 | 13414 ft | 321 kts | 112° |
| 2026-05-04 21:48 | 50.54876 | 19.63881 | 13194 ft | 313 kts | 130° |
| 2026-05-04 21:48 | 50.53412 | 19.66340 | 12969 ft | 305 kts | 147° |
| 2026-05-04 21:49 | 50.51621 | 19.68045 | 12756 ft | 299 kts | 158° |
| 2026-05-04 21:49 | 50.49758 | 19.69497 | 12544 ft | 299 kts | 158° |
| 2026-05-04 21:49 | 50.47899 | 19.70952 | 12321 ft | 298 kts | 158° |
| 2026-05-04 21:49 | 50.46048 | 19.72406 | 12113 ft | 297 kts | 157° |
| 2026-05-04 21:50 | 50.44197 | 19.73859 | 11894 ft | 296 kts | 157° |
| 2026-05-04 21:50 | 50.42354 | 19.75298 | 11684 ft | 295 kts | 157° |
| 2026-05-04 21:50 | 50.40532 | 19.76716 | 11476 ft | 295 kts | 157° |
| 2026-05-04 21:50 | 50.38681 | 19.78157 | 11246 ft | 293 kts | 157° |
| 2026-05-04 21:51 | 50.36859 | 19.79578 | 11051 ft | 292 kts | 157° |
| 2026-05-04 21:51 | 50.35041 | 19.80997 | 10839 ft | 291 kts | 157° |
| 2026-05-04 21:51 | 50.33235 | 19.82406 | 10628 ft | 290 kts | 157° |
| 2026-05-04 21:51 | 50.31431 | 19.83811 | 10425 ft | 289 kts | 157° |
| 2026-05-04 21:52 | 50.29639 | 19.85206 | 10214 ft | 288 kts | 157° |
| 2026-05-04 21:52 | 50.27849 | 19.86598 | 10003 ft | 287 kts | 157° |
| 2026-05-04 21:52 | 50.26069 | 19.87985 | 9782 ft | 286 kts | 156° |
| 2026-05-04 21:52 | 50.24291 | 19.89371 | 9552 ft | 285 kts | 156° |
| 2026-05-04 21:53 | 50.22519 | 19.90754 | 9349 ft | 285 kts | 155° |
| 2026-05-04 21:53 | 50.20922 | 19.92587 | 9134 ft | 289 kts | 134° |
| 2026-05-04 21:53 | 50.19888 | 19.95286 | 8921 ft | 295 kts | 110° |
| 2026-05-04 21:53 | 50.19629 | 19.98464 | 8693 ft | 298 kts | 86° |
| 2026-05-04 21:54 | 50.20003 | 20.01603 | 8526 ft | 289 kts | 79° |
| 2026-05-04 21:54 | 50.20414 | 20.04612 | 8388 ft | 278 kts | 79° |
| 2026-05-04 21:54 | 50.20811 | 20.07515 | 8205 ft | 270 kts | 79° |
| 2026-05-04 21:54 | 50.21196 | 20.10346 | 8059 ft | 264 kts | 79° |
| 2026-05-04 21:55 | 50.21578 | 20.13159 | 7915 ft | 265 kts | 79° |
| 2026-05-04 21:55 | 50.21956 | 20.15967 | 7724 ft | 263 kts | 79° |
| 2026-05-04 21:55 | 50.22328 | 20.18755 | 7548 ft | 262 kts | 79° |
| 2026-05-04 21:55 | 50.22700 | 20.21536 | 7354 ft | 261 kts | 79° |
| 2026-05-04 21:56 | 50.23071 | 20.24307 | 7155 ft | 260 kts | 79° |
| 2026-05-04 21:56 | 50.23414 | 20.27039 | 6961 ft | 259 kts | 86° |
| 2026-05-04 21:56 | 50.23153 | 20.29782 | 6768 ft | 252 kts | 118° |
| 2026-05-04 21:56 | 50.22072 | 20.31855 | 6577 ft | 246 kts | 149° |
| 2026-05-04 21:57 | 50.20543 | 20.32814 | 6384 ft | 240 kts | 172° |
| 2026-05-04 21:57 | 50.18898 | 20.33329 | 6180 ft | 241 kts | 172° |
| 2026-05-04 21:57 | 50.17250 | 20.33589 | 5974 ft | 235 kts | 192° |
| 2026-05-04 21:57 | 50.15793 | 20.32614 | 5794 ft | 228 kts | 224° |
| 2026-05-04 21:58 | 50.14919 | 20.30621 | 5622 ft | 225 kts | 253° |
| 2026-05-04 21:58 | 50.14572 | 20.28245 | 5461 ft | 225 kts | 258° |
| 2026-05-04 21:58 | 50.14253 | 20.25858 | 5296 ft | 225 kts | 257° |
| 2026-05-04 21:58 | 50.13929 | 20.23469 | 5122 ft | 225 kts | 257° |
| 2026-05-04 21:59 | 50.13605 | 20.21086 | 4958 ft | 224 kts | 257° |
| 2026-05-04 21:59 | 50.13287 | 20.18711 | 4761 ft | 222 kts | 257° |
| 2026-05-04 21:59 | 50.12979 | 20.16370 | 4546 ft | 218 kts | 257° |
| 2026-05-04 21:59 | 50.12665 | 20.14047 | 4386 ft | 220 kts | 257° |
| 2026-05-04 22:00 | 50.12355 | 20.11774 | 4221 ft | 209 kts | 256° |
| 2026-05-04 22:00 | 50.12062 | 20.09608 | 4041 ft | 201 kts | 256° |
| 2026-05-04 22:00 | 50.11776 | 20.07493 | 3871 ft | 198 kts | 256° |
| 2026-05-04 22:00 | 50.11491 | 20.05408 | 3706 ft | 196 kts | 256° |
| 2026-05-04 22:01 | 50.11211 | 20.03362 | 3538 ft | 186 kts | 256° |
| 2026-05-04 22:01 | 50.10958 | 20.01508 | 3372 ft | 165 kts | 256° |
| 2026-05-04 22:01 | 50.10729 | 19.99834 | 3228 ft | 153 kts | 255° |
| 2026-05-04 22:01 | 50.10511 | 19.98247 | 3099 ft | 148 kts | 255° |
| 2026-05-04 22:02 | 50.10296 | 19.96692 | 2969 ft | 146 kts | 255° |
| 2026-05-04 22:02 | 50.10083 | 19.95151 | 2757 ft | 145 kts | 256° |
| 2026-05-04 22:02 | 50.09875 | 19.93635 | 2561 ft | 145 kts | 255° |
| 2026-05-04 22:02 | 50.09662 | 19.92100 | 2364 ft | 145 kts | 255° |
| 2026-05-04 22:03 | 50.09448 | 19.90570 | 2160 ft | 144 kts | 255° |
| 2026-05-04 22:03 | 50.09224 | 19.89047 | 1968 ft | 144 kts | 256° |
| 2026-05-04 22:03 | 50.09006 | 19.87511 | 1773 ft | 146 kts | 257° |
| 2026-05-04 22:03 | 50.08797 | 19.85960 | 1603 ft | 147 kts | 257° |
| 2026-05-04 22:04 | 50.08596 | 19.84401 | 1421 ft | 146 kts | 257° |
| 2026-05-04 22:04 | 50.08375 | 19.82855 | 1241 ft | 146 kts | 257° |
| 2026-05-04 22:04 | 50.08165 | 19.81306 | 1055 ft | 147 kts | 259° |
| 2026-05-04 22:04 | 50.07953 | 19.79757 | 840 ft | 145 kts | 257° |
| 2026-05-04 22:05 | 50.07744 | 19.78289 | 800 ft | 118 kts | 258° |
| 2026-05-04 22:05 | 50.07636 | 19.77502 | 799 ft | 31 kts | 258° |
| 2026-05-04 22:05 | 50.07594 | 19.77192 | 802 ft | 27 kts | 258° |
| 2026-05-04 22:05 | 50.07554 | 19.76914 | 802 ft | 23 kts | 254° |
| 2026-05-04 22:06 | 50.07509 | 19.76841 | 802 ft | 4 kts | 186° |
| 2026-05-04 22:06 | 50.07426 | 19.76864 | 800 ft | 20 kts | 168° |
| 2026-05-04 22:06 | 50.07312 | 19.76925 | 800 ft | 12 kts | 123° |
| 2026-05-04 22:06 | 50.07319 | 19.77046 | 800 ft | 11 kts | 78° |
| 2026-05-04 22:07 | 50.07333 | 19.77155 | 800 ft | 10 kts | 78° |
| 2026-05-04 22:07 | 50.07347 | 19.77251 | 800 ft | 9 kts | 77° |
| 2026-05-04 22:07 | 50.07360 | 19.77338 | 800 ft | 8 kts | 77° |
| 2026-05-04 22:07 | 50.07371 | 19.77416 | 800 ft | 8 kts | 77° |
| 2026-05-04 22:08 | 50.07390 | 19.77557 | 800 ft | 18 kts | 78° |
| 2026-05-04 22:08 | 50.07419 | 19.77770 | 800 ft | 20 kts | 79° |
| 2026-05-04 22:08 | 50.07447 | 19.77977 | 800 ft | 19 kts | 76° |
| 2026-05-04 22:08 | 50.07476 | 19.78176 | 800 ft | 18 kts | 78° |
| 2026-05-04 22:09 | 50.07503 | 19.78367 | 800 ft | 18 kts | 77° |
| 2026-05-04 22:09 | 50.07529 | 19.78549 | 800 ft | 17 kts | 77° |
| 2026-05-04 22:09 | 50.07553 | 19.78724 | 800 ft | 16 kts | 78° |
| 2026-05-04 22:09 | 50.07577 | 19.78892 | 800 ft | 15 kts | 78° |
| 2026-05-04 22:10 | 50.07599 | 19.79052 | 800 ft | 15 kts | 78° |
| 2026-05-04 22:10 | 50.07620 | 19.79204 | 800 ft | 14 kts | 78° |
| 2026-05-04 22:10 | 50.07641 | 19.79360 | 800 ft | 19 kts | 78° |
| 2026-05-04 22:10 | 50.07680 | 19.79633 | 800 ft | 29 kts | 77° |
| 2026-05-04 22:11 | 50.07717 | 19.79902 | 800 ft | 21 kts | 78° |
| 2026-05-04 22:11 | 50.07743 | 19.80101 | 800 ft | 18 kts | 78° |
| 2026-05-04 22:11 | 50.07766 | 19.80266 | 800 ft | 10 kts | 77° |
| 2026-05-04 22:11 | 50.07756 | 19.80361 | 800 ft | 9 kts | 136° |
| 2026-05-04 22:12 | 50.07703 | 19.80385 | 800 ft | 8 kts | 167° |
| 2026-05-04 22:12 | 50.07654 | 19.80401 | 800 ft | 7 kts | 167° |
| 2026-05-04 22:12 | 50.07611 | 19.80416 | 800 ft | 6 kts | 167° |
| 2026-05-04 22:12 | 50.07575 | 19.80426 | 800 ft | 5 kts | 174° |
| 2026-05-04 22:13 | 50.07548 | 19.80415 | 800 ft | 4 kts | 199° |
| 2026-05-04 22:13 | 50.07527 | 19.80404 | 800 ft | 3 kts | 198° |
| 2026-05-04 22:13 | 50.07504 | 19.80393 | 800 ft | 4 kts | 198° |
| 2026-05-04 22:13 | 50.07489 | 19.80387 | 800 ft | 0 kts | 187° |
| 2026-05-04 22:14 | 50.07479 | 19.80392 | 800 ft | 5 kts | 159° |
| 2026-05-04 22:14 | 50.07462 | 19.80431 | 800 ft | 3 kts | 109° |
| 2026-05-04 22:14 | 50.07456 | 19.80455 | 800 ft | 2 kts | 108° |
| 2026-05-04 22:14 | 50.07454 | 19.80468 | 800 ft | 1 kts | 107° |
| 2026-05-04 22:15 | 50.07453 | 19.80472 | 800 ft | 1 kts | 107° |
| 2026-05-04 22:15 | 50.07453 | 19.80473 | 800 ft | 0 kts | 107° |